Terminal Aerodrome Forecast
Issued by NWS

Home | Current Version | Previous Version | Text Only | Print | Product List | Glossary On
Versions: 1 2 3 4 5 6 7 8 9 10 11 12 13 14 15
000
FTUS45 KRIW 280800 AAA
TAFRKS
TAF AMD
KRKS 280852Z 2809/2906 25011KT P6SM VCSH SCT035 BKN060
     FM282000 27012G18KT P6SM VCTS SCT040 BKN060CB
     FM290200 26010KT P6SM VCSH SCT050 BKN080=

USA.gov is the U.S. government's official web portal to all federal, state and local government web resources and services.